Time;durP1;ratioP1;P1;durP2;ratioP2;P2;SDS_P1;SDS_P2;PMS_P1;PMS_P2;Temp;Humidity;BMP_temperature;BMP_pressure;BME280_temperature;BME280_humidity;BME280_pressure;Samples;Min_cycle;Max_cycle;Signal;HPM_P1;HPM_P2
2022/06/29 00:01:40;;;;;;;1.30;1.20;;;19.60;98.30;;;20.06;67.43;100959.53;5187797;28;20053;-73
2022/06/29 00:04:13;;;;;;;1.30;1.20;;;19.60;98.80;;;20.02;68.33;100967.50;5205394;28;20041;-73
2022/06/29 00:06:45;;;;;;;1.80;1.10;;;19.50;99.30;;;19.94;69.39;100964.81;5205225;28;20041;-75
2022/06/29 00:09:17;;;;;;;1.33;1.02;;;19.50;99.80;;;19.88;70.12;100969.25;5205509;28;20049;-76
2022/06/29 00:11:49;;;;;;;2.05;1.33;;;19.40;99.90;;;19.83;70.46;100963.97;5205267;28;20395;-73
2022/06/29 00:14:21;;;;;;;1.52;1.20;;;19.40;99.90;;;19.78;70.29;100960.44;5205293;28;20040;-75
2022/06/29 00:16:55;;;;;;;1.60;1.30;;;19.30;99.90;;;19.73;70.45;100955.16;5209020;28;20049;-75
2022/06/29 00:19:27;;;;;;;1.30;0.95;;;19.30;99.90;;;19.68;71.01;100956.91;5209067;28;20053;-75
2022/06/29 00:21:59;;;;;;;1.40;1.10;;;19.20;99.90;;;19.66;71.51;100953.38;5208985;28;20406;-75
2022/06/29 00:24:32;;;;;;;1.45;1.15;;;19.20;99.90;;;19.62;71.28;100954.25;5209060;28;20045;-75
2022/06/29 00:27:05;;;;;;;1.15;1.05;;;19.20;99.90;;;19.62;71.00;100962.19;5208928;28;20397;-75
2022/06/29 00:29:37;;;;;;;1.75;1.20;;;19.20;99.90;;;19.60;70.98;100950.72;5208933;28;20079;-72
2022/06/29 00:32:11;;;;;;;1.35;1.20;;;19.10;99.90;;;19.60;70.09;100956.03;5208883;28;20053;-71
2022/06/29 00:34:43;;;;;;;1.30;1.10;;;19.20;99.90;;;19.62;69.36;100956.91;5208851;28;20121;-70
2022/06/29 00:37:15;;;;;;;3.40;1.13;;;19.20;99.90;;;19.63;69.21;100961.34;5208800;28;20041;-71
2022/06/29 00:39:47;;;;;;;1.77;1.30;;;19.10;99.90;;;19.63;69.10;100966.63;5208873;28;20038;-71
2022/06/29 00:42:19;;;;;;;1.23;1.13;;;19.10;99.90;;;19.64;68.39;100973.66;5208675;28;20523;-71
2022/06/29 00:44:51;;;;;;;1.30;1.20;;;19.20;99.90;;;19.65;68.59;100966.63;5190743;28;20076;-72
2022/06/29 00:47:25;;;;;;;1.38;1.27;;;19.10;99.90;;;19.63;68.88;100955.16;5208515;28;20048;-71
2022/06/29 00:49:57;;;;;;;1.63;1.20;;;19.10;99.90;;;19.60;69.46;100958.66;5208558;28;20042;-71
2022/06/29 00:52:31;;;;;;;1.95;1.33;;;19.10;99.90;;;19.56;70.22;100962.19;5208508;28;20049;-70
2022/06/29 00:55:09;;;;;;;1.63;1.50;;;19.10;99.90;;;19.50;70.87;100948.94;5208349;28;20516;-70
2022/06/29 00:57:45;;;;;;;1.42;1.17;;;19.10;99.90;;;19.47;70.88;100946.28;5190574;28;20053;-70
2022/06/29 01:00:18;;;;;;;1.40;1.08;;;19.00;99.90;;;19.45;71.13;100942.78;5208175;28;20045;-71
2022/06/29 01:02:51;;;;;;;1.88;1.40;;;19.00;99.90;;;19.44;70.95;100941.00;5208261;28;20091;-70
2022/06/29 01:05:24;;;;;;;1.40;1.30;;;18.90;99.90;;;19.43;70.93;100947.16;5208074;28;20049;-71
2022/06/29 01:07:57;;;;;;;1.77;1.30;;;19.00;99.90;;;19.41;71.24;100941.88;5208397;28;20038;-71
2022/06/29 01:10:29;;;;;;;1.33;1.17;;;18.90;99.90;;;19.36;71.94;100935.69;5208065;28;20169;-71
2022/06/29 01:13:01;;;;;;;1.40;1.30;;;18.90;99.90;;;19.31;72.33;100937.47;5208096;28;20041;-71
2022/06/29 01:15:34;;;;;;;1.20;1.08;;;18.90;99.90;;;19.25;72.87;100945.41;5207913;28;20049;-71
2022/06/29 01:18:08;;;;;;;2.47;1.30;;;18.80;99.90;;;19.18;73.47;100939.22;5207971;28;20050;-71
2022/06/29 01:20:40;;;;;;;1.23;1.13;;;18.80;99.90;;;19.13;74.25;100938.31;5207703;28;20076;-72
2022/06/29 01:23:14;;;;;;;1.20;1.10;;;18.70;99.90;;;19.09;74.75;100939.19;5207906;28;20069;-71
2022/06/29 01:25:51;;;;;;;1.70;1.23;;;18.70;99.90;;;19.04;75.29;100940.94;5207402;28;20057;-71
2022/06/29 01:28:23;;;;;;;2.45;1.10;;;18.60;99.90;;;19.00;75.62;100939.16;5207813;28;20052;-71
2022/06/29 01:30:55;;;;;;;1.45;1.23;;;18.50;99.90;;;18.96;76.14;100945.31;5207639;28;20060;-71
2022/06/29 01:33:28;;;;;;;1.45;1.30;;;18.50;99.90;;;18.91;76.31;100936.50;5207841;28;20512;-70
2022/06/29 01:36:00;;;;;;;1.35;1.25;;;18.50;99.90;;;18.87;76.25;100937.38;5207464;28;20050;-71
2022/06/29 01:38:33;;;;;;;1.50;1.10;;;18.40;99.90;;;18.81;76.58;100934.72;5207436;28;20042;-70
2022/06/29 01:41:07;;;;;;;2.15;1.45;;;18.40;99.90;;;18.75;76.86;100926.75;5205873;28;20049;-71
2022/06/29 01:43:39;;;;;;;1.42;1.33;;;18.30;99.90;;;18.69;77.10;100932.91;5207219;28;20051;-70
2022/06/29 01:46:12;;;;;;;2.38;1.45;;;18.30;99.90;;;18.63;77.46;100931.06;5207405;28;20073;-71
2022/06/29 01:48:44;;;;;;;1.50;1.40;;;18.20;99.90;;;18.58;77.56;100931.94;5207159;28;20045;-71
2022/06/29 01:51:16;;;;;;;1.67;1.45;;;18.10;99.90;;;18.52;77.94;100924.91;5207340;28;20498;-71
2022/06/29 01:53:49;;;;;;;1.85;1.30;;;18.10;99.90;;;18.48;78.17;100923.09;5207118;28;20046;-71
2022/06/29 01:56:22;;;;;;;2.25;1.40;;;18.10;99.90;;;18.43;78.33;100920.44;5207202;28;20124;-71
2022/06/29 01:58:54;;;;;;;1.70;1.30;;;18.00;99.90;;;18.39;78.56;100923.94;5207126;28;20124;-70
2022/06/29 02:01:26;;;;;;;1.92;1.25;;;18.00;99.90;;;18.35;78.37;100919.53;5207031;28;20052;-70
2022/06/29 02:03:58;;;;;;;1.52;1.38;;;17.90;99.90;;;18.32;78.76;100922.16;5207004;28;20112;-71
2022/06/29 02:06:30;;;;;;;2.03;1.20;;;17.90;99.90;;;18.31;79.11;100914.22;5206968;28;20136;-71
2022/06/29 02:09:04;;;;;;;1.92;1.23;;;17.90;99.90;;;18.29;78.93;100905.41;5206780;28;20037;-71
2022/06/29 02:11:36;;;;;;;1.40;1.30;;;17.90;99.90;;;18.24;78.91;100905.38;5206834;28;20410;-70
2022/06/29 02:14:08;;;;;;;1.48;1.25;;;17.80;99.90;;;18.23;78.57;100900.09;5206997;28;20052;-70
2022/06/29 02:16:40;;;;;;;2.00;1.30;;;17.80;99.90;;;18.20;78.69;100900.09;5206760;28;20041;-71
2022/06/29 02:19:13;;;;;;;1.73;1.42;;;17.80;99.90;;;18.18;78.41;100906.22;5206730;28;20128;-70
2022/06/29 02:21:45;;;;;;;1.77;1.40;;;17.80;99.90;;;18.15;78.67;100890.41;5188835;28;20076;-71
2022/06/29 02:24:18;;;;;;;1.88;1.27;;;17.70;99.90;;;18.12;78.52;100893.00;5206624;28;20064;-70
2022/06/29 02:26:50;;;;;;;2.53;1.25;;;17.70;99.90;;;18.10;78.66;100900.03;5206638;28;20045;-71
2022/06/29 02:29:22;;;;;;;2.03;1.33;;;17.70;99.90;;;18.08;78.78;100907.06;5206520;28;20048;-70
2022/06/29 02:34:44;;;;;;;1.50;1.40;;;17.60;99.90;;;18.01;78.98;100900.00;5206489;28;20080;-70
2022/06/29 02:37:17;;;;;;;1.20;1.10;;;17.60;99.90;;;17.97;79.26;100908.75;5206041;28;20048;-69
2022/06/29 02:39:51;;;;;;;1.25;1.15;;;17.60;99.90;;;17.93;79.48;100906.97;5206173;28;20033;-70
2022/06/29 02:42:23;;;;;;;1.58;1.30;;;17.50;99.90;;;17.90;79.89;100902.56;5206280;28;20045;-71
2022/06/29 02:44:55;;;;;;;1.75;1.48;;;17.50;99.90;;;17.87;79.89;100902.53;5206224;28;20051;-71
2022/06/29 02:47:28;;;;;;;1.88;1.30;;;17.50;99.90;;;17.85;80.17;100903.38;5206254;28;20049;-71
2022/06/29 02:50:00;;;;;;;1.67;1.40;;;17.50;99.90;;;17.82;80.12;100900.75;5206135;28;20043;-70
2022/06/29 02:52:32;;;;;;;2.55;1.30;;;17.40;99.90;;;17.79;79.80;100898.94;5206075;28;20516;-71
2022/06/29 02:55:07;;;;;;;1.42;1.33;;;17.40;99.90;;;17.77;79.64;100890.16;5206069;28;20115;-71
2022/06/29 02:57:39;;;;;;;1.60;1.50;;;17.40;99.90;;;17.75;79.60;100891.91;5205973;28;20383;-71
2022/06/29 03:00:13;;;;;;;1.63;1.20;;;17.30;99.90;;;17.73;79.74;100892.75;5206108;28;20056;-70
2022/06/29 03:02:45;;;;;;;1.73;1.33;;;17.30;99.90;;;17.70;79.97;100887.44;5205971;28;20049;-70
2022/06/29 03:05:18;;;;;;;1.42;1.27;;;17.30;99.90;;;17.68;80.02;100884.81;5205974;28;20049;-70
2022/06/29 03:07:50;;;;;;;2.30;1.58;;;17.30;99.90;;;17.69;80.35;100886.56;5205983;28;20042;-71
2022/06/29 03:10:24;;;;;;;3.60;1.25;;;17.30;99.90;;;17.70;80.27;100892.72;5205865;28;20553;-71
2022/06/29 03:12:56;;;;;;;1.35;1.25;;;17.30;99.90;;;17.69;79.96;100889.19;5205956;28;20051;-71
2022/06/29 03:15:28;;;;;;;1.90;1.63;;;17.30;99.90;;;17.69;80.14;100888.31;5205772;28;20143;-71
2022/06/29 03:18:00;;;;;;;1.85;1.35;;;17.30;99.90;;;17.67;80.32;100882.13;5205744;28;20073;-71
2022/06/29 03:20:32;;;;;;;2.35;1.50;;;17.30;99.90;;;17.68;80.49;100881.28;5205715;28;20045;-71
2022/06/29 03:23:05;;;;;;;1.50;1.40;;;17.30;99.90;;;17.71;80.54;100884.84;5205684;28;20079;-72
2022/06/29 03:25:38;;;;;;;1.80;1.38;;;17.30;99.90;;;17.74;80.18;100878.72;5205654;28;20048;-71
2022/06/29 03:28:10;;;;;;;1.92;1.30;;;17.30;99.90;;;17.74;80.19;100869.06;5205650;28;20041;-71
2022/06/29 03:30:42;;;;;;;1.95;1.33;;;17.30;99.90;;;17.75;80.54;100864.66;5205615;28;20045;-71
2022/06/29 03:33:14;;;;;;;1.75;1.50;;;17.30;99.90;;;17.76;80.80;100862.03;5205671;28;20425;-71
2022/06/29 03:35:46;;;;;;;1.90;1.42;;;17.40;99.90;;;17.76;80.74;100864.66;5205564;28;20052;-71
2022/06/29 03:38:19;;;;;;;2.60;1.30;;;17.40;99.90;;;17.77;80.79;100868.19;5205562;28;20045;-70
2022/06/29 03:40:52;;;;;;;1.88;1.50;;;17.30;99.90;;;17.78;81.08;100870.81;5205533;28;20071;-71
2022/06/29 03:43:24;;;;;;;2.78;1.40;;;17.40;99.90;;;17.79;81.14;100869.06;5204068;28;20049;-71
2022/06/29 03:45:57;;;;;;;2.05;1.55;;;17.40;99.90;;;17.81;80.71;100864.72;5205510;28;20037;-71
2022/06/29 03:48:29;;;;;;;2.53;1.30;;;17.40;99.90;;;17.84;79.37;100864.72;5205506;28;20407;-71
2022/06/29 03:51:01;;;;;;;1.50;1.40;;;17.40;99.90;;;17.88;78.19;100866.50;5209471;28;20406;-71
2022/06/29 03:53:33;;;;;;;1.55;1.30;;;17.50;99.90;;;17.94;77.11;100866.53;5209588;28;20046;-71
2022/06/29 03:56:07;;;;;;;3.15;1.58;;;17.50;99.90;;;17.99;76.40;100848.97;5209452;28;20052;-71
2022/06/29 03:58:40;;;;;;;2.45;1.63;;;17.50;99.90;;;18.05;76.28;100859.56;5209362;28;20046;-71
2022/06/29 04:01:12;;;;;;;2.40;1.35;;;17.60;99.90;;;18.11;76.49;100858.72;5209421;28;20045;-71
2022/06/29 04:03:44;;;;;;;1.83;1.45;;;17.70;99.90;;;18.14;76.26;100849.06;5209503;28;20401;-71
2022/06/29 04:06:16;;;;;;;2.47;1.23;;;17.70;99.90;;;18.17;75.60;100841.16;5191631;28;20155;-71
2022/06/29 04:08:48;;;;;;;2.13;1.33;;;17.80;99.90;;;18.23;74.93;100840.31;5209423;28;20033;-72
2022/06/29 04:14:12;;;;;;;3.95;1.60;;;17.90;99.90;;;18.35;73.80;100839.47;5209187;28;20060;-71
2022/06/29 04:16:44;;;;;;;2.28;1.33;;;17.90;99.90;;;18.41;73.30;100852.69;5209252;28;20041;-70
2022/06/29 04:19:16;;;;;;;1.80;1.45;;;18.00;99.90;;;18.44;73.11;100847.41;5209042;28;20041;-71
2022/06/29 04:21:48;;;;;;;1.83;1.33;;;18.00;99.90;;;18.48;73.00;100849.19;5191263;28;20510;-71
2022/06/29 04:24:21;;;;;;;1.88;1.50;;;18.10;99.90;;;18.51;73.06;100843.03;5209101;28;20075;-71
2022/06/29 04:26:54;;;;;;;1.70;1.33;;;18.10;99.90;;;18.54;74.23;100854.50;5208953;28;20041;-71
2022/06/29 04:29:27;;;;;;;1.55;1.40;;;18.10;99.90;;;18.57;75.30;100850.97;5208951;28;20038;-71
2022/06/29 04:31:59;;;;;;;2.05;1.50;;;18.20;99.90;;;18.60;75.16;100849.25;5208800;28;20115;-71
2022/06/29 04:34:31;;;;;;;2.42;1.60;;;18.20;99.90;;;18.64;75.02;100853.63;5208763;28;20049;-71
2022/06/29 04:37:04;;;;;;;1.67;1.27;;;18.20;99.90;;;18.66;75.18;100849.28;5208857;28;20047;-71
2022/06/29 04:39:36;;;;;;;2.17;1.58;;;18.20;99.90;;;18.68;75.18;100849.28;5208771;28;20045;-71
2022/06/29 04:42:09;;;;;;;3.00;2.13;;;18.20;99.90;;;18.69;74.75;100858.97;5208697;28;20037;-71
2022/06/29 04:47:47;;;;;;;2.25;1.70;;;18.30;99.90;;;18.68;73.53;100855.44;5184454;28;20844;-67
2022/06/29 04:50:19;;;;;;;1.85;1.33;;;18.30;99.90;;;18.70;73.25;100861.59;5185353;28;20053;-68
2022/06/29 04:52:51;;;;;;;2.20;1.40;;;18.30;99.90;;;18.74;75.11;100861.63;5167619;28;20070;-68
2022/06/29 04:55:25;;;;;;;2.67;1.60;;;18.30;99.90;;;18.77;77.42;100856.34;5167392;28;20052;-68
2022/06/29 04:57:59;;;;;;;3.47;1.60;;;18.30;99.90;;;18.80;79.04;100848.44;5167434;28;20042;-70
2022/06/29 05:00:31;;;;;;;2.42;1.50;;;18.40;99.90;;;18.80;79.63;100840.53;5181788;28;20058;-68
2022/06/29 05:03:03;;;;;;;2.65;1.95;;;18.40;99.90;;;18.81;81.07;100839.63;5182396;28;20057;-68
2022/06/29 05:05:35;;;;;;;2.38;1.50;;;18.40;99.90;;;18.81;81.51;100840.50;5182147;28;20076;-68
2022/06/29 05:08:08;;;;;;;4.85;1.77;;;18.40;99.90;;;18.81;81.48;100834.34;5167248;28;20117;-68
2022/06/29 05:10:40;;;;;;;2.15;1.73;;;18.40;99.90;;;18.79;81.87;100837.00;5166048;28;20141;-69
2022/06/29 05:13:14;;;;;;;3.25;1.52;;;18.40;99.90;;;18.79;81.67;100844.03;5167197;28;20050;-69
2022/06/29 05:15:46;;;;;;;2.95;1.50;;;18.40;99.90;;;18.79;82.26;100842.28;5166781;28;20052;-69
2022/06/29 05:18:18;;;;;;;2.50;1.63;;;18.40;99.90;;;18.80;82.61;100835.25;5167422;28;20558;-68
2022/06/29 05:20:50;;;;;;;2.65;1.60;;;18.40;99.90;;;18.82;83.31;100833.47;5182108;28;20066;-70
2022/06/29 05:23:23;;;;;;;1.88;1.67;;;18.40;99.90;;;18.82;84.07;100836.13;5167085;28;20073;-68
2022/06/29 05:25:55;;;;;;;2.88;1.60;;;18.40;99.90;;;18.83;84.75;100832.59;5181885;28;20050;-68
2022/06/29 05:28:28;;;;;;;1.85;1.48;;;18.40;99.90;;;18.84;84.38;100836.97;5167192;28;20052;-69
2022/06/29 05:31:00;;;;;;;2.42;1.50;;;18.40;99.90;;;18.84;83.80;100832.59;5165609;28;20549;-69
2022/06/29 05:33:36;;;;;;;2.63;1.60;;;18.40;99.90;;;18.89;83.61;100829.97;5167117;28;20048;-67
2022/06/29 05:36:10;;;;;;;1.73;1.60;;;18.50;99.90;;;18.91;83.53;100829.09;5166538;28;20526;-69
2022/06/29 05:38:42;;;;;;;2.20;1.40;;;18.50;99.90;;;18.95;84.00;100824.69;5166460;28;20070;-68
2022/06/29 05:41:15;;;;;;;2.45;1.63;;;18.50;99.90;;;19.00;84.07;100832.63;5166790;28;20046;-68
2022/06/29 05:43:51;;;;;;;2.30;1.65;;;18.50;99.90;;;19.01;83.18;100823.81;5165444;28;20078;-70
2022/06/29 05:46:23;;;;;;;2.42;1.60;;;18.60;99.90;;;19.03;83.05;100838.78;5166125;28;20042;-68
2022/06/29 05:48:55;;;;;;;2.38;1.92;;;18.60;99.90;;;19.05;83.29;100839.69;5166628;28;20137;-69
2022/06/29 05:51:27;;;;;;;1.92;1.73;;;18.60;99.90;;;19.08;83.92;100850.22;5166455;28;20048;-69
2022/06/29 05:53:59;;;;;;;2.42;1.65;;;18.60;99.90;;;19.12;84.87;100846.72;5166501;28;20491;-69
2022/06/29 05:56:32;;;;;;;2.10;1.65;;;18.70;99.90;;;19.14;84.96;100838.78;5166142;28;20074;-69
2022/06/29 05:59:06;;;;;;;2.20;1.55;;;18.70;99.90;;;19.15;85.24;100844.06;5166544;28;20042;-67
2022/06/29 06:01:38;;;;;;;2.75;1.83;;;18.70;99.90;;;19.15;85.46;100849.34;5166194;28;20046;-66
2022/06/29 06:04:10;;;;;;;3.90;2.05;;;18.70;99.90;;;19.14;85.50;100839.66;5166410;28;20046;-66
2022/06/29 06:06:42;;;;;;;2.22;1.63;;;18.70;99.90;;;19.14;85.68;100842.31;5165991;28;20077;-67
2022/06/29 06:09:14;;;;;;;3.08;2.03;;;18.70;99.90;;;19.16;86.11;100848.47;5166240;28;20097;-66
2022/06/29 06:11:47;;;;;;;3.65;1.80;;;18.70;99.90;;;19.18;86.74;100849.38;5166037;28;20057;-66
2022/06/29 06:14:20;;;;;;;3.72;1.73;;;18.80;99.90;;;19.19;86.94;100853.78;5165477;28;20090;-66
2022/06/29 06:16:52;;;;;;;3.72;2.03;;;18.80;99.90;;;19.20;86.85;100852.88;5165692;28;20046;-67
2022/06/29 06:19:25;;;;;;;3.00;1.75;;;18.80;99.90;;;19.18;86.73;100854.66;5165961;28;20431;-66
2022/06/29 06:21:57;;;;;;;3.58;1.80;;;18.70;99.90;;;19.18;86.65;100854.66;5164487;28;20108;-67
2022/06/29 06:24:29;;;;;;;2.25;1.88;;;18.80;99.90;;;19.21;86.76;100852.00;5165939;28;20074;-67
2022/06/29 06:27:01;;;;;;;2.25;1.73;;;18.80;99.90;;;19.25;86.91;100845.84;5165673;28;20054;-67
2022/06/29 06:29:35;;;;;;;2.72;1.52;;;18.80;99.90;;;19.30;86.80;100843.22;5165911;28;20042;-67
2022/06/29 06:32:08;;;;;;;3.05;1.77;;;18.80;99.90;;;19.35;86.48;100845.84;5165792;28;20113;-67
2022/06/29 06:34:41;;;;;;;3.70;1.80;;;18.90;99.90;;;19.38;86.12;100835.28;5165681;28;20046;-56
2022/06/29 06:37:13;;;;;;;2.70;1.90;;;18.90;99.90;;;19.49;82.75;100844.94;5165752;28;20046;-56
2022/06/29 06:41:21;;;;;;;1.67;1.50;;;19.00;99.90;;;19.69;81.13;100834.41;5165593;28;20034;-57
2022/06/29 06:42:37;;;;;;;3.67;2.00;;;19.20;99.90;;;19.87;80.22;100835.22;5165462;28;20419;-57
2022/06/29 06:45:11;;;;;;;4.63;1.90;;;19.40;99.90;;;19.94;78.56;100836.97;5165167;28;20140;-57
2022/06/29 06:47:43;;;;;;;3.40;1.95;;;19.50;99.90;;;20.00;77.94;100839.59;5165431;28;20487;-58
2022/06/29 06:50:15;;;;;;;4.03;1.90;;;19.60;99.90;;;20.06;76.62;100844.88;5165583;28;20113;-56
2022/06/29 06:52:47;;;;;;;2.35;1.70;;;19.60;99.90;;;20.09;75.29;100836.94;5165426;28;20046;-57
2022/06/29 06:55:20;;;;;;;1.95;1.60;;;19.70;99.90;;;20.16;73.81;100833.38;5165654;28;20074;-56
2022/06/29 06:57:52;;;;;;;2.20;1.55;;;19.80;99.90;;;20.22;72.79;100828.06;5165142;28;20056;-58
2022/06/29 07:00:26;;;;;;;3.05;1.60;;;19.80;99.90;;;20.28;72.25;100835.97;5164936;28;20046;-56
2022/06/29 07:02:58;;;;;;;1.67;1.38;;;19.80;99.90;;;20.32;71.28;100839.47;5164928;28;20077;-57
2022/06/29 07:05:30;;;;;;;2.55;1.48;;;19.90;99.90;;;20.36;70.38;100845.66;5164938;28;20051;-57
2022/06/29 07:08:02;;;;;;;1.95;1.52;;;19.90;99.90;;;20.41;69.63;100839.44;5165495;28;20053;-58
2022/06/29 07:10:34;;;;;;;3.10;1.60;;;19.90;99.90;;;20.45;69.06;100848.28;5165194;28;20123;-58
2022/06/29 07:13:06;;;;;;;2.92;1.35;;;20.00;99.90;;;20.48;68.59;100850.91;5164897;28;20057;-57
2022/06/29 07:15:40;;;;;;;2.95;1.50;;;20.00;99.90;;;20.51;67.97;100850.91;5164942;28;20061;-57
2022/06/29 07:18:12;;;;;;;2.15;1.60;;;20.00;99.90;;;20.54;67.18;100848.25;5165058;28;20161;-56
2022/06/29 07:20:44;;;;;;;2.40;1.42;;;20.10;99.90;;;20.55;67.22;100853.53;5165051;28;20042;-56
2022/06/29 07:23:16;;;;;;;2.80;1.40;;;20.10;99.90;;;20.58;67.13;100853.50;5165047;28;20050;-56
2022/06/29 07:25:48;;;;;;;3.05;1.65;;;20.20;99.90;;;20.63;67.09;100850.84;5164401;28;20054;-56
2022/06/29 07:28:21;;;;;;;1.63;1.42;;;20.20;99.90;;;20.67;67.18;100847.28;5165023;28;20050;-56
2022/06/29 07:30:54;;;;;;;2.30;1.40;;;20.20;99.90;;;20.71;67.42;100849.00;5164904;28;20046;-55
2022/06/29 07:33:27;;;;;;;1.70;1.60;;;20.30;99.90;;;20.76;67.55;100852.53;5164966;28;20042;-57
2022/06/29 07:36:00;;;;;;;1.95;1.27;;;20.30;99.90;;;20.81;67.39;100850.72;5164504;28;20125;-57
2022/06/29 07:38:32;;;;;;;2.65;1.50;;;20.40;99.90;;;20.82;67.11;100846.31;5164874;28;20069;-58
2022/06/29 07:41:04;;;;;;;1.60;1.30;;;20.40;99.90;;;20.84;67.02;100847.16;5164691;28;20121;-58
2022/06/29 07:43:37;;;;;;;2.35;1.38;;;20.40;99.90;;;20.88;66.64;100845.41;5164979;28;20123;-56
2022/06/29 07:46:10;;;;;;;2.55;1.33;;;20.40;99.90;;;20.85;66.33;100844.50;5164653;28;20046;-57
2022/06/29 07:48:43;;;;;;;1.67;1.20;;;20.40;99.80;;;20.86;65.94;100848.94;5164698;28;20113;-57
2022/06/29 07:51:15;;;;;;;2.70;1.65;;;20.40;99.60;;;20.89;65.26;100852.44;5164790;28;20070;-57
2022/06/29 07:53:47;;;;;;;2.78;1.52;;;20.40;99.30;;;20.93;64.32;100848.88;5164672;28;20414;-56
2022/06/29 07:56:19;;;;;;;2.13;1.70;;;20.40;98.90;;;20.93;62.32;100840.91;5164908;28;20046;-54
2022/06/29 07:58:52;;;;;;;3.72;1.88;;;20.50;97.90;;;20.99;62.55;100851.47;5163068;28;20050;-58
2022/06/29 08:01:25;;;;;;;2.75;1.65;;;20.50;98.00;;;21.06;62.35;100850.53;5164565;28;20065;-55
2022/06/29 08:03:57;;;;;;;1.90;1.50;;;20.60;97.80;;;21.05;61.91;100854.09;5164347;28;20056;-58
2022/06/29 08:06:30;;;;;;;2.20;1.50;;;20.60;97.40;;;21.04;61.72;100847.03;5164070;28;20426;-57
2022/06/29 08:09:03;;;;;;;2.70;1.40;;;20.60;97.20;;;21.08;61.68;100854.06;5164296;28;20081;-57
2022/06/29 08:11:35;;;;;;;3.67;1.70;;;20.70;97.20;;;21.11;61.35;100854.03;5164368;28;20042;-55
2022/06/29 08:14:08;;;;;;;2.83;2.00;;;20.70;97.00;;;21.13;61.24;100852.28;5164791;28;20070;-58
2022/06/29 08:16:41;;;;;;;2.13;1.60;;;20.70;96.80;;;21.16;61.26;100852.25;5164475;28;20122;-59
2022/06/29 08:19:15;;;;;;;3.08;1.63;;;20.80;96.80;;;21.18;61.16;100850.44;5164862;28;20555;-58
2022/06/29 08:21:48;;;;;;;2.25;1.50;;;20.80;96.70;;;21.20;61.24;100851.34;5179291;28;20124;-59
2022/06/29 08:24:20;;;;;;;1.95;1.50;;;20.80;96.70;;;21.24;60.91;100849.53;5164072;28;20046;-56
2022/06/29 08:26:52;;;;;;;2.42;1.70;;;20.80;96.40;;;21.27;60.63;100845.09;5163880;28;20042;-56
2022/06/29 08:29:24;;;;;;;1.80;1.33;;;20.90;96.40;;;21.36;60.77;100844.16;5163436;28;20455;-57
2022/06/29 08:31:58;;;;;;;3.78;1.38;;;20.90;96.30;;;21.42;60.42;100844.09;5164009;28;20053;-57
2022/06/29 08:34:31;;;;;;;1.67;1.45;;;21.00;96.10;;;21.45;60.19;100852.03;5163751;28;20046;-57
2022/06/29 08:37:04;;;;;;;2.63;1.45;;;21.00;96.00;;;21.47;59.97;100841.41;5166237;28;20046;-57
2022/06/29 08:39:36;;;;;;;1.75;1.40;;;21.00;95.80;;;21.53;59.87;100834.28;5167897;28;20120;-55
2022/06/29 08:42:09;;;;;;;1.70;1.35;;;21.10;95.80;;;21.61;59.94;100840.38;5167975;28;20148;-57
2022/06/29 08:44:41;;;;;;;1.23;1.13;;;21.20;95.80;;;21.69;59.74;100842.97;5167844;28;20065;-68
2022/06/29 08:47:15;;;;;;;2.15;1.45;;;21.20;95.80;;;21.75;59.10;100849.97;5166560;28;20062;-67
2022/06/29 08:49:47;;;;;;;2.00;1.40;;;21.30;95.40;;;21.84;58.61;100847.22;5167950;28;20461;-69
2022/06/29 08:52:21;;;;;;;1.33;1.13;;;21.30;95.40;;;22.11;58.20;100832.81;5166607;28;20077;-68
2022/06/29 08:54:55;;;;;;;2.25;1.42;;;21.40;95.20;;;22.47;57.32;100834.13;5167491;28;20046;-69
2022/06/29 08:57:27;;;;;;;3.65;1.48;;;21.70;94.90;;;22.75;56.54;100842.56;5183130;28;20527;-69
2022/06/29 09:00:00;;;;;;;2.67;1.50;;;21.80;94.60;;;22.98;55.92;100852.91;5167295;28;20053;-68
2022/06/29 09:02:34;;;;;;;1.92;1.50;;;22.00;94.30;;;23.06;55.42;100844.81;5148211;28;20047;-68
2022/06/29 09:05:07;;;;;;;2.60;1.30;;;22.10;93.80;;;23.08;55.56;100853.63;5147351;28;20043;-70
2022/06/29 09:07:39;;;;;;;2.25;1.52;;;22.20;93.70;;;23.03;55.75;100845.75;5147444;28;20134;-67
2022/06/29 09:10:18;;;;;;;3.20;1.55;;;22.20;93.60;;;22.99;56.71;100839.59;5147567;28;20046;-67
2022/06/29 09:12:52;;;;;;;1.60;1.50;;;22.20;94.00;;;22.95;57.10;100839.66;5147606;28;20495;-69
2022/06/29 09:15:33;;;;;;;2.22;1.50;;;22.20;94.10;;;22.88;56.96;100845.97;5147298;28;20043;-69
2022/06/29 09:18:25;;;;;;;3.63;1.63;;;22.20;94.00;;;22.80;56.18;100848.69;5147384;28;20106;-67
2022/06/29 09:21:00;;;;;;;3.08;1.50;;;22.10;93.40;;;22.71;56.07;100854.16;5147253;28;20491;-67
2022/06/29 09:23:34;;;;;;;2.00;1.60;;;22.10;93.20;;;22.62;56.09;100855.16;5147234;28;20511;-70
2022/06/29 09:26:06;;;;;;;2.42;1.85;;;22.00;93.10;;;22.54;55.61;100861.47;5147060;28;20057;-68
2022/06/29 09:28:39;;;;;;;3.78;1.77;;;22.00;92.70;;;22.45;55.47;100863.34;5147084;28;20078;-67
2022/06/29 09:31:11;;;;;;;2.35;1.60;;;21.90;92.50;;;22.32;55.40;100864.41;5147085;28;20133;-69
2022/06/29 09:33:44;;;;;;;1.63;1.52;;;21.80;92.20;;;22.30;55.54;100862.66;5147251;28;20043;-69
2022/06/29 09:36:18;;;;;;;3.65;1.95;;;21.80;92.30;;;22.24;55.35;100857.44;5146788;28;20050;-69
2022/06/29 09:38:51;;;;;;;2.53;1.83;;;21.70;92.10;;;22.23;55.56;100872.47;5146873;28;20078;-69
2022/06/29 09:41:23;;;;;;;2.00;1.63;;;21.70;92.20;;;22.21;55.95;100863.66;5147033;28;20070;-68
2022/06/29 09:43:55;;;;;;;2.45;1.70;;;21.70;92.40;;;22.23;56.32;100864.50;5146876;28;20046;-67
2022/06/29 09:46:28;;;;;;;2.88;1.50;;;21.70;92.50;;;22.24;56.19;100863.63;5161476;28;20070;-69
2022/06/29 09:49:04;;;;;;;3.30;1.77;;;21.70;92.60;;;22.28;56.18;100864.47;5146593;28;20047;-71
2022/06/29 09:51:38;;;;;;;1.92;1.42;;;21.70;92.50;;;22.31;56.21;100864.44;5146504;28;20117;-71
2022/06/29 09:54:11;;;;;;;3.28;1.50;;;21.70;92.50;;;22.34;56.57;100865.25;5146519;28;20046;-70
2022/06/29 09:56:48;;;;;;;1.73;1.60;;;21.80;92.70;;;22.41;57.02;100861.63;5146429;28;20072;-71
2022/06/29 10:02:36;;;;;;;2.63;1.83;;;21.80;93.10;;;22.49;56.81;100853.56;5146902;28;20478;-71
2022/06/29 10:05:13;;;;;;;1.52;1.40;;;21.90;92.90;;;22.56;56.58;100846.38;5146064;28;20075;-71
2022/06/29 10:07:47;;;;;;;3.58;1.70;;;22.00;92.80;;;22.64;56.52;100845.41;5146316;28;20042;-71
2022/06/29 10:10:23;;;;;;;2.40;1.38;;;22.00;92.70;;;22.71;56.12;100840.88;5146069;28;20128;-72
2022/06/29 10:16:19;;;;;;;2.25;1.63;;;22.10;92.70;;;22.94;56.91;100829.91;5146116;28;20049;-70
2022/06/29 10:19:27;;;;;;;3.78;1.75;;;22.30;93.10;;;23.14;56.73;100826.94;5146234;28;20067;-72
2022/06/29 10:22:01;;;;;;;2.15;1.70;;;22.40;93.10;;;23.24;55.93;100828.56;5146007;28;20046;-69
2022/06/29 10:24:37;;;;;;;2.70;1.65;;;22.50;92.50;;;23.27;53.52;100833.81;5146065;28;20053;-71
2022/06/29 10:27:09;;;;;;;3.92;1.73;;;22.60;91.00;;;23.36;54.03;100828.34;5146272;28;20534;-71
2022/06/29 10:29:41;;;;;;;3.00;1.70;;;22.70;91.10;;;23.54;53.20;100832.47;5145897;28;20066;-71
2022/06/29 10:32:16;;;;;;;3.03;1.50;;;22.80;90.80;;;23.56;50.96;100826.22;5145931;28;20057;-71
2022/06/29 10:35:07;;;;;;;2.20;1.70;;;22.80;87.90;;;23.81;50.69;100831.13;5160450;28;20507;-74
2022/06/29 10:37:51;;;;;;;1.90;1.30;;;23.00;88.10;;;24.19;49.75;100827.69;5146150;28;20050;-72
2022/06/29 10:40:27;;;;;;;2.38;1.50;;;23.30;86.60;;;24.40;48.69;100828.19;5145590;28;20043;-72
2022/06/29 10:43:20;;;;;;;2.00;1.50;;;23.50;84.40;;;24.75;49.54;100822.94;5160597;28;20082;-71
2022/06/29 10:49:20;;;;;;;1.42;1.30;;;24.10;83.30;;;25.32;47.33;100830.47;5185125;28;20049;-72
2022/06/29 10:51:53;;;;;;;2.53;1.65;;;24.30;82.30;;;25.50;46.83;100817.59;5165096;28;20061;-73
2022/06/29 10:54:29;;;;;;;2.13;1.52;;;24.50;80.90;;;25.68;46.59;100823.28;5165297;28;20046;-73
2022/06/29 10:57:01;;;;;;;2.28;1.73;;;24.70;80.30;;;25.79;46.67;100825.69;5163799;28;20137;-73